Time;durP1;ratioP1;P1;durP2;ratioP2;P2;SDS_P1;SDS_P2;PMS_P1;PMS_P2;Temp;Humidity;BMP_temperature;BMP_pressure;BME280_temperature;BME280_humidity;BME280_pressure;Samples;Min_cycle;Max_cycle;Signal;HPM_P1;HPM_P2
2024/02/03 00:00:08;;;;;;;0.30;0.20;;;;;;;9.22;96.15;101526.34;5063112;28;20591;-50
2024/02/03 00:02:34;;;;;;;0.30;0.20;;;;;;;9.32;95.77;101528.03;5062134;28;20468;-50
2024/02/03 00:05:01;;;;;;;0.30;0.20;;;;;;;9.27;96.25;101525.41;5073975;28;20954;-49
2024/02/03 00:07:28;;;;;;;0.30;0.20;;;;;;;9.23;96.28;101525.44;5066616;28;20424;-50
2024/02/03 00:09:55;;;;;;;0.30;0.20;;;;;;;9.24;96.65;101529.84;5073875;28;20934;-49
2024/02/03 00:12:25;;;;;;;0.30;0.20;;;;;;;9.27;95.78;101527.19;5073834;28;20462;-50
2024/02/03 00:14:52;;;;;;;0.30;0.20;;;;;;;9.17;96.52;101529.84;5074042;28;20452;-49
2024/02/03 00:17:19;;;;;;;0.30;0.20;;;;;;;9.13;96.38;101520.16;5074060;28;20508;-50
2024/02/03 00:19:46;;;;;;;0.30;0.20;;;;;;;9.15;96.74;101528.09;5072642;28;20469;-49
2024/02/03 00:22:13;;;;;;;0.30;0.20;;;;;;;9.26;96.47;101528.09;5073590;28;20490;-49
2024/02/03 00:24:39;;;;;;;0.30;0.20;;;;;;;9.28;96.34;101527.19;5073561;28;20515;-51
2024/02/03 00:27:06;;;;;;;0.30;0.20;;;;;;;9.28;96.27;101529.84;5059108;28;20448;-49
2024/02/03 00:29:33;;;;;;;0.30;0.20;;;;;;;9.38;96.25;101530.69;5065731;28;20450;-50
2024/02/03 00:31:59;;;;;;;0.30;0.20;;;;;;;9.27;96.10;101521.88;5073549;28;20476;-51
2024/02/03 00:34:26;;;;;;;0.30;0.20;;;;;;;9.16;96.42;101516.59;5073577;28;20449;-49
2024/02/03 00:36:52;;;;;;;0.30;0.20;;;;;;;9.10;97.15;101514.00;5072647;28;20446;-49
2024/02/03 00:39:19;;;;;;;0.30;0.20;;;;;;;9.09;97.36;101512.22;5058053;28;20562;-48
2024/02/03 00:41:45;;;;;;;0.30;0.20;;;;;;;9.15;96.65;101497.16;5073402;28;20517;-49
2024/02/03 00:44:14;;;;;;;0.30;0.20;;;;;;;9.09;97.20;101505.16;5073360;28;20450;-49
2024/02/03 00:46:41;;;;;;;0.30;0.20;;;;;;;9.10;97.51;101496.31;5073397;28;20455;-48
2024/02/03 00:49:07;;;;;;;0.30;0.20;;;;;;;9.15;97.44;101501.56;5073154;28;21013;-48
2024/02/03 00:51:34;;;;;;;0.30;0.20;;;;;;;9.04;97.42;101501.59;5073013;28;21144;-48
2024/02/03 00:54:00;;;;;;;0.30;0.20;;;;;;;9.11;97.26;101499.84;5072872;28;20977;-48
2024/02/03 00:56:27;;;;;;;0.30;0.20;;;;;;;9.11;97.01;101503.38;5063113;28;20449;-49
2024/02/03 00:58:53;;;;;;;0.30;0.20;;;;;;;9.14;96.50;101500.69;5072036;28;20445;-49
2024/02/03 01:01:20;;;;;;;0.30;0.20;;;;;;;9.15;96.85;101509.53;5072885;28;20486;-49
2024/02/03 01:03:47;;;;;;;0.30;0.20;;;;;;;9.25;96.51;101505.97;5072907;28;20453;-48
2024/02/03 01:06:13;;;;;;;0.30;0.20;;;;;;;9.25;96.50;101515.72;5072987;28;20534;-47
2024/02/03 01:08:40;;;;;;;0.30;0.20;;;;;;;9.34;96.08;101515.69;5072706;28;20428;-48
2024/02/03 01:11:06;;;;;;;0.30;0.20;;;;;;;9.22;95.79;101518.38;5073058;28;20436;-48
2024/02/03 01:13:33;;;;;;;0.30;0.20;;;;;;;9.23;96.57;101509.53;5072859;28;20449;-51
2024/02/03 01:15:59;;;;;;;0.60;0.60;;;;;;;9.15;96.96;101507.75;5072745;28;20461;-49
2024/02/03 01:18:26;;;;;;;0.30;0.20;;;;;;;9.18;96.45;101507.78;5072525;28;20545;-48
2024/02/03 01:20:52;;;;;;;0.30;0.20;;;;;;;9.25;96.18;101510.41;5072435;28;20494;-49
2024/02/03 01:23:19;;;;;;;0.30;0.20;;;;;;;9.22;96.29;101503.34;5046184;28;20470;-50
2024/02/03 01:25:46;;;;;;;0.30;0.20;;;;;;;9.34;95.63;101513.91;5072267;28;21091;-49
2024/02/03 01:28:14;;;;;;;0.30;0.20;;;;;;;9.32;95.49;101515.69;5052971;28;20423;-49
2024/02/03 01:30:40;;;;;;;0.30;0.20;;;;;;;9.20;95.87;101524.56;5072355;28;20436;-49
2024/02/03 01:33:07;;;;;;;0.30;0.20;;;;;;;9.25;96.30;101521.91;5072376;28;20464;-48
2024/02/03 01:35:33;;;;;;;0.30;0.20;;;;;;;9.35;95.91;101525.41;5072148;28;20428;-49
2024/02/03 01:38:00;;;;;;;0.30;0.20;;;;;;;9.35;95.80;101517.44;5062182;28;20458;-48
2024/02/03 01:40:28;;;;;;;0.30;0.20;;;;;;;9.25;95.74;101516.59;5065753;28;20420;-49
2024/02/03 01:43:00;;;;;;;0.30;0.20;;;;;;;9.25;96.15;101515.72;5072487;28;20499;-50
2024/02/03 01:45:28;;;;;;;0.30;0.20;;;;;;;9.29;96.15;101510.38;5072098;28;20529;-49
2024/02/03 01:47:55;;;;;;;0.30;0.20;;;;;;;9.37;95.67;101519.19;5072017;28;20519;-49
2024/02/03 01:50:22;;;;;;;0.30;0.20;;;;;;;9.26;95.79;101513.03;5071784;28;20453;-48
2024/02/03 01:52:50;;;;;;;0.30;0.20;;;;;;;9.27;96.08;101508.63;5071922;28;20518;-49
2024/02/03 01:55:18;;;;;;;0.30;0.20;;;;;;;9.25;95.87;101505.09;5065973;28;20901;-48
2024/02/03 01:57:45;;;;;;;0.30;0.20;;;;;;;9.25;95.77;101511.28;5066397;28;20499;-50
2024/02/03 02:00:12;;;;;;;0.30;0.20;;;;;;;9.24;96.22;101508.63;5071808;28;20454;-48
2024/02/03 02:02:39;;;;;;;0.30;0.20;;;;;;;9.27;96.27;101509.50;5071604;28;20538;-49
2024/02/03 02:05:06;;;;;;;0.30;0.20;;;;;;;9.29;96.20;101510.38;5071686;28;20454;-48
2024/02/03 02:07:41;;;;;;;0.30;0.20;;;;;;;9.27;95.98;101498.88;5071931;28;20873;-49
2024/02/03 02:10:07;;;;;;;0.30;0.20;;;;;;;9.28;95.98;101510.38;5071789;28;20552;-49
2024/02/03 02:12:35;;;;;;;0.30;0.20;;;;;;;9.38;96.22;101506.81;5071672;28;20929;-49
2024/02/03 02:15:02;;;;;;;0.30;0.20;;;;;;;9.34;95.77;101515.69;5071635;28;20457;-49
2024/02/03 02:17:29;;;;;;;0.30;0.20;;;;;;;9.49;95.22;101521.81;5071583;28;20445;-48
2024/02/03 02:20:09;;;;;;;0.30;0.20;;;;;;;9.43;95.47;101516.50;5071691;28;20499;-49
2024/02/03 02:22:36;;;;;;;0.30;0.20;;;;;;;9.37;95.36;101521.84;5071405;28;20578;-48
2024/02/03 02:25:04;;;;;;;0.30;0.20;;;;;;;9.48;95.34;101516.50;5071523;28;20446;-49
2024/02/03 02:27:31;;;;;;;0.30;0.20;;;;;;;9.45;95.32;101522.69;5051119;28;20453;-49
2024/02/03 02:29:58;;;;;;;0.30;0.20;;;;;;;9.50;94.91;101517.38;5071572;28;20506;-49
2024/02/03 02:32:25;;;;;;;0.30;0.20;;;;;;;9.45;95.12;101508.53;5071398;28;20466;-50
2024/02/03 02:34:51;;;;;;;0.30;0.20;;;;;;;9.45;95.45;101498.81;5071745;28;20449;-49
2024/02/03 02:37:18;;;;;;;0.30;0.20;;;;;;;9.48;95.12;101509.44;5067150;28;20529;-50
2024/02/03 02:39:44;;;;;;;0.30;0.20;;;;;;;9.34;95.93;101505.06;5059619;28;20450;-50
2024/02/03 02:42:11;;;;;;;0.30;0.20;;;;;;;9.50;95.05;101499.69;5071072;28;20492;-49
2024/02/03 02:44:37;;;;;;;0.30;0.20;;;;;;;9.44;95.41;101498.81;5071331;28;20931;-48
2024/02/03 02:47:04;;;;;;;0.30;0.20;;;;;;;9.28;96.18;101495.34;5071500;28;20474;-48
2024/02/03 02:49:30;;;;;;;0.30;0.20;;;;;;;9.34;96.13;101499.75;5071295;28;20895;-49
2024/02/03 02:51:57;;;;;;;0.30;0.20;;;;;;;9.35;96.02;101497.09;5070573;22;20498;-48
2024/02/03 02:54:24;;;;;;;1.07;1.07;;;;;;;9.27;96.20;101492.69;5046830;28;20438;-49
2024/02/03 02:56:50;;;;;;;0.30;0.20;;;;;;;9.25;96.55;101491.84;5053144;28;20446;-49
2024/02/03 02:59:17;;;;;;;0.30;0.20;;;;;;;9.33;96.37;101488.28;5044708;28;20442;-49
2024/02/03 03:01:44;;;;;;;0.30;0.20;;;;;;;9.39;96.35;101493.53;5055211;28;20486;-48
2024/02/03 03:04:10;;;;;;;0.30;0.20;;;;;;;9.37;96.42;101491.78;5055516;28;20454;-48
2024/02/03 03:06:37;;;;;;;0.30;0.20;;;;;;;9.44;95.87;101494.38;5055331;28;20454;-48
2024/02/03 03:09:04;;;;;;;0.30;0.20;;;;;;;9.33;96.22;101487.38;5055356;28;20629;-49
2024/02/03 03:11:30;;;;;;;0.30;0.20;;;;;;;9.30;96.74;101490.03;5054983;28;20569;-48
2024/02/03 03:13:58;;;;;;;0.30;0.20;;;;;;;9.27;96.48;101488.28;5055520;28;20452;-48
2024/02/03 03:16:24;;;;;;;0.30;0.20;;;;;;;9.26;95.79;101483.84;5055035;28;20447;-49
2024/02/03 03:18:51;;;;;;;0.33;0.27;;;;;;;9.25;96.50;101486.53;5055422;28;20461;-48
2024/02/03 03:21:17;;;;;;;0.30;0.20;;;;;;;9.20;96.75;101494.50;5054919;28;20489;-50
2024/02/03 03:23:44;;;;;;;0.30;0.20;;;;;;;9.25;96.54;101495.38;5055099;28;20450;-50
2024/02/03 03:26:11;;;;;;;0.30;0.20;;;;;;;9.19;96.65;101496.28;5054939;28;20454;-48
2024/02/03 03:28:37;;;;;;;0.30;0.20;;;;;;;9.12;96.87;101491.88;5045645;28;20505;-48
2024/02/03 03:31:03;;;;;;;0.30;0.20;;;;;;;9.22;96.85;101495.38;5054953;28;21344;-48
2024/02/03 03:33:30;;;;;;;0.30;0.20;;;;;;;9.32;96.50;101494.47;5054830;28;20453;-48
2024/02/03 03:35:57;;;;;;;0.30;0.20;;;;;;;9.26;96.63;101501.56;5054789;28;20450;-47
2024/02/03 03:38:23;;;;;;;0.30;0.20;;;;;;;9.22;96.67;101498.03;5054480;28;20537;-48
2024/02/03 03:40:50;;;;;;;0.30;0.20;;;;;;;9.29;96.24;101505.06;5054605;28;20538;-47
2024/02/03 03:43:16;;;;;;;0.30;0.20;;;;;;;9.30;96.01;101509.47;5054674;28;20494;-47
2024/02/03 03:45:43;;;;;;;0.30;0.20;;;;;;;9.37;96.24;101510.34;5054623;28;20446;-48
2024/02/03 03:48:09;;;;;;;0.30;0.20;;;;;;;9.27;96.56;101516.56;5054517;28;20890;-47
2024/02/03 03:50:36;;;;;;;0.30;0.20;;;;;;;9.32;96.45;101520.09;5054440;28;20462;-49
2024/02/03 03:53:02;;;;;;;0.30;0.20;;;;;;;9.29;96.31;101506.84;5054411;28;20524;-48
2024/02/03 03:55:29;;;;;;;0.30;0.20;;;;;;;9.34;96.25;101516.56;5054462;28;20482;-49
2024/02/03 03:57:55;;;;;;;0.30;0.20;;;;;;;9.45;95.78;101516.50;5054671;28;20458;-49
2024/02/03 04:00:22;;;;;;;0.30;0.20;;;;;;;9.46;95.85;101518.28;5054289;28;20518;-49
2024/02/03 04:02:49;;;;;;;0.30;0.20;;;;;;;9.52;95.16;101522.69;5053826;28;20563;-48
2024/02/03 04:05:15;;;;;;;0.30;0.20;;;;;;;9.46;95.64;101515.63;5054300;28;20534;-49
2024/02/03 04:07:42;;;;;;;0.30;0.20;;;;;;;9.45;95.66;101524.47;5054237;28;20454;-49
2024/02/03 04:10:09;;;;;;;0.30;0.20;;;;;;;9.42;95.90;101521.81;5054534;28;20464;-49
2024/02/03 04:12:35;;;;;;;0.30;0.20;;;;;;;9.39;96.19;101525.38;5054214;28;20524;-50
2024/02/03 04:15:02;;;;;;;0.30;0.20;;;;;;;9.36;96.15;101519.22;5054305;28;20500;-49
2024/02/03 04:17:28;;;;;;;0.30;0.20;;;;;;;9.32;96.60;101518.34;5053755;28;21009;-49
2024/02/03 04:19:55;;;;;;;0.30;0.20;;;;;;;9.25;97.14;101513.06;5053775;28;20451;-49
2024/02/03 04:22:22;;;;;;;0.30;0.20;;;;;;;9.28;97.36;101513.91;5053660;28;20491;-49
2024/02/03 04:24:48;;;;;;;0.30;0.20;;;;;;;9.31;97.05;101511.25;5053792;28;20458;-50
2024/02/03 04:27:15;;;;;;;0.30;0.20;;;;;;;9.37;97.03;101513.91;5053983;28;20816;-50
2024/02/03 04:29:44;;;;;;;0.30;0.20;;;;;;;9.43;96.79;101505.00;5053796;28;20869;-49
2024/02/03 04:32:14;;;;;;;0.30;0.20;;;;;;;9.45;96.08;101519.16;5053505;28;21041;-49
2024/02/03 04:34:40;;;;;;;0.30;0.20;;;;;;;9.43;96.76;101502.34;5040416;28;21071;-50
2024/02/03 04:37:08;;;;;;;0.30;0.20;;;;;;;9.56;96.22;101506.72;5053394;28;20516;-50
2024/02/03 04:39:34;;;;;;;0.30;0.20;;;;;;;9.59;95.55;101512.00;5040329;28;20429;-50
2024/02/03 04:42:01;;;;;;;0.30;0.20;;;;;;;9.68;95.00;101513.75;5053297;28;20494;-50
2024/02/03 04:44:27;;;;;;;0.30;0.20;;;;;;;9.68;95.19;101505.78;5053654;28;20529;-48
2024/02/03 04:46:54;;;;;;;0.30;0.20;;;;;;;9.62;95.38;101505.81;5053310;28;20486;-49
2024/02/03 04:49:21;;;;;;;0.30;0.20;;;;;;;9.54;95.71;101497.00;5053365;28;20458;-49
2024/02/03 04:51:47;;;;;;;0.30;0.20;;;;;;;9.55;95.86;101501.41;5053391;28;20478;-47
2024/02/03 04:54:14;;;;;;;0.30;0.20;;;;;;;9.52;95.56;101489.06;5053388;28;20443;-48
2024/02/03 04:56:40;;;;;;;0.30;0.20;;;;;;;9.52;95.61;101485.53;5053318;28;20451;-49
2024/02/03 04:59:07;;;;;;;0.30;0.20;;;;;;;9.52;95.71;101490.84;5053275;28;20820;-48
2024/02/03 05:01:34;;;;;;;0.30;0.20;;;;;;;9.55;96.15;101498.78;5053205;28;20492;-48
2024/02/03 05:04:00;;;;;;;0.30;0.20;;;;;;;9.51;95.76;101484.63;5053031;28;20458;-48
2024/02/03 05:06:27;;;;;;;0.30;0.20;;;;;;;9.53;95.55;101476.66;5053159;28;20541;-48
2024/02/03 05:08:58;;;;;;;0.30;0.20;;;;;;;9.46;95.67;101479.38;5053264;28;20522;-49
2024/02/03 05:11:25;;;;;;;0.30;0.20;;;;;;;9.50;95.76;101466.94;5053031;28;20881;-49
2024/02/03 05:13:51;;;;;;;0.30;0.20;;;;;;;9.38;96.16;101470.53;5053048;28;20536;-49
2024/02/03 05:16:18;;;;;;;0.30;0.20;;;;;;;9.41;96.48;101473.19;5052085;28;20874;-49
2024/02/03 05:18:45;;;;;;;0.30;0.20;;;;;;;9.50;95.70;101459.00;5052589;28;20485;-50
2024/02/03 05:21:11;;;;;;;0.30;0.20;;;;;;;9.44;96.56;101469.63;5052870;28;20489;-49
2024/02/03 05:23:38;;;;;;;0.30;0.20;;;;;;;9.35;96.34;101475.88;5052874;28;20608;-50
2024/02/03 05:26:04;;;;;;;0.30;0.20;;;;;;;9.45;96.19;101476.69;5052698;28;20540;-50
2024/02/03 05:28:31;;;;;;;0.30;0.20;;;;;;;9.53;96.12;101474.91;5052675;28;20844;-50
2024/02/03 05:30:57;;;;;;;0.30;0.20;;;;;;;9.50;95.58;101475.78;5052395;28;20453;-48
2024/02/03 05:33:23;;;;;;;0.30;0.20;;;;;;;9.54;95.72;101470.47;5052259;28;20443;-49
2024/02/03 05:35:50;;;;;;;0.30;0.20;;;;;;;9.53;95.95;101469.59;5052634;28;20446;-49
2024/02/03 05:38:16;;;;;;;0.30;0.20;;;;;;;9.53;95.48;101466.94;5052379;28;20473;-49
2024/02/03 05:40:43;;;;;;;0.30;0.20;;;;;;;9.56;95.87;101466.91;5052422;28;20530;-49
2024/02/03 05:43:10;;;;;;;0.30;0.20;;;;;;;9.61;95.77;101464.25;5052151;28;20499;-49
2024/02/03 05:45:36;;;;;;;0.30;0.20;;;;;;;9.55;95.74;101458.94;5051989;28;20451;-49
2024/02/03 05:48:03;;;;;;;0.30;0.20;;;;;;;9.56;95.61;101464.25;5051993;28;20442;-49
2024/02/03 05:50:29;;;;;;;0.30;0.20;;;;;;;9.54;95.20;101463.38;5052280;28;20447;-49
2024/02/03 05:52:56;;;;;;;0.30;0.20;;;;;;;9.65;94.66;101466.88;5051901;28;20881;-48
2024/02/03 05:55:22;;;;;;;0.30;0.20;;;;;;;9.65;94.22;101471.28;5051999;28;20958;-48
2024/02/03 05:57:50;;;;;;;0.30;0.20;;;;;;;9.59;94.31;101468.66;5052236;28;20459;-48
2024/02/03 06:00:18;;;;;;;0.30;0.20;;;;;;;9.69;93.86;101460.63;5051865;28;20478;-48
2024/02/03 06:02:45;;;;;;;0.30;0.20;;;;;;;9.71;93.71;101463.28;5051993;28;20499;-49
2024/02/03 06:05:13;;;;;;;0.30;0.20;;;;;;;9.61;94.26;101465.13;5051953;28;20928;-48
2024/02/03 06:07:40;;;;;;;0.30;0.20;;;;;;;9.51;95.49;101474.03;5051809;28;20526;-48
2024/02/03 06:10:07;;;;;;;0.30;0.20;;;;;;;9.52;95.76;101461.63;5051895;28;20462;-48
2024/02/03 06:12:33;;;;;;;0.30;0.20;;;;;;;9.36;96.63;101456.41;5051830;28;20459;-48
2024/02/03 06:15:00;;;;;;;0.30;0.20;;;;;;;9.39;96.67;101456.38;5051643;28;20497;-47
2024/02/03 06:17:27;;;;;;;0.30;0.20;;;;;;;9.34;96.72;101449.34;5051615;28;20944;-48
2024/02/03 06:19:53;;;;;;;0.30;0.20;;;;;;;9.38;96.70;101454.63;5051803;28;20454;-48
2024/02/03 06:22:20;;;;;;;0.30;0.20;;;;;;;9.38;96.84;101445.78;5051748;28;20498;-48
2024/02/03 06:24:47;;;;;;;0.30;0.20;;;;;;;9.36;96.99;101439.59;5051693;28;20454;-47
2024/02/03 06:27:13;;;;;;;0.30;0.20;;;;;;;9.37;97.17;101444.91;5051511;28;20454;-47
2024/02/03 06:29:40;;;;;;;0.30;0.20;;;;;;;9.55;96.82;101441.25;5051616;28;20450;-48
2024/02/03 06:32:06;;;;;;;0.30;0.20;;;;;;;9.47;96.34;101449.28;5051363;28;20516;-48
2024/02/03 06:34:33;;;;;;;0.30;0.20;;;;;;;9.46;96.63;101446.63;5051426;28;20999;-48
2024/02/03 06:37:00;;;;;;;0.30;0.20;;;;;;;9.43;96.81;101447.50;5051476;28;20446;-48
2024/02/03 06:39:26;;;;;;;0.30;0.20;;;;;;;9.43;96.97;101439.53;5051452;28;20454;-49
2024/02/03 06:41:53;;;;;;;0.30;0.20;;;;;;;9.38;96.85;101444.00;5051341;28;20475;-48
2024/02/03 06:44:19;;;;;;;0.30;0.20;;;;;;;9.39;96.77;101458.16;5051485;28;20530;-47
2024/02/03 06:46:45;;;;;;;0.30;0.20;;;;;;;9.43;96.73;101444.84;5051334;28;21013;-48
2024/02/03 06:49:12;;;;;;;0.30;0.20;;;;;;;9.44;96.06;101457.22;5051385;28;20541;-47
2024/02/03 06:51:38;;;;;;;0.30;0.20;;;;;;;9.52;96.08;101445.72;5051190;28;21074;-48
2024/02/03 06:54:05;;;;;;;0.30;0.20;;;;;;;9.40;96.65;101452.84;5051236;28;20947;-47
2024/02/03 06:56:31;;;;;;;0.30;0.20;;;;;;;9.40;96.75;101458.16;5051167;28;20479;-47
2024/02/03 06:58:58;;;;;;;0.30;0.20;;;;;;;9.35;96.71;101453.75;5051539;28;20497;-54
2024/02/03 07:01:25;;;;;;;0.30;0.20;;;;;;;9.36;96.59;101458.19;5033510;28;20486;-48
2024/02/03 07:03:51;;;;;;;0.30;0.20;;;;;;;9.45;96.68;101459.00;5051254;28;20497;-48
2024/02/03 07:06:18;;;;;;;0.30;0.20;;;;;;;9.57;96.41;101455.41;5051333;28;20451;-50
2024/02/03 07:08:44;;;;;;;0.30;0.20;;;;;;;9.53;96.12;101451.00;5037900;28;20534;-47
2024/02/03 07:11:15;;;;;;;0.30;0.20;;;;;;;9.46;96.39;101451.94;5051072;28;20469;-47
2024/02/03 07:13:41;;;;;;;0.30;0.20;;;;;;;9.39;96.83;101456.38;5051381;28;21034;-48
2024/02/03 07:16:08;;;;;;;0.30;0.20;;;;;;;9.40;97.23;101462.56;5051154;28;20447;-49
2024/02/03 07:18:35;;;;;;;0.30;0.20;;;;;;;9.38;97.25;101462.59;5051255;28;20458;-48
2024/02/03 07:21:02;;;;;;;0.30;0.20;;;;;;;9.51;96.96;101463.41;5051116;28;20446;-49
2024/02/03 07:23:28;;;;;;;0.30;0.20;;;;;;;9.47;97.09;101459.00;5051006;28;20569;-49
2024/02/03 07:25:54;;;;;;;0.30;0.20;;;;;;;9.38;97.12;101467.88;5051435;28;20447;-48
2024/02/03 07:28:21;;;;;;;0.30;0.20;;;;;;;9.42;97.13;101461.66;5051222;28;20885;-48
2024/02/03 07:30:48;;;;;;;0.30;0.20;;;;;;;9.48;96.84;101466.97;5050970;28;20870;-47
2024/02/03 07:33:14;;;;;;;0.30;0.20;;;;;;;9.46;96.43;101463.44;5050972;28;20513;-48
2024/02/03 07:35:41;;;;;;;0.30;0.20;;;;;;;9.56;96.50;101464.25;5050700;28;20825;-48
2024/02/03 07:38:08;;;;;;;0.30;0.20;;;;;;;9.52;96.65;101457.22;5051772;28;20500;-57
2024/02/03 07:40:34;;;;;;;0.30;0.20;;;;;;;9.55;96.75;101462.50;5054500;28;20442;-48
2024/02/03 07:43:01;;;;;;;0.30;0.20;;;;;;;9.66;96.04;101460.66;5054209;28;21005;-48
2024/02/03 07:45:27;;;;;;;0.30;0.20;;;;;;;9.64;96.23;101462.44;5054548;28;20446;-48
2024/02/03 07:47:54;;;;;;;0.30;0.20;;;;;;;9.76;95.86;101458.84;5056104;28;20891;-49
2024/02/03 07:50:21;;;;;;;0.30;0.20;;;;;;;9.72;96.02;101465.91;5036216;28;20774;-49
2024/02/03 07:52:48;;;;;;;0.30;0.20;;;;;;;9.80;95.69;101464.13;5054218;28;20549;-48
2024/02/03 07:55:14;;;;;;;0.30;0.20;;;;;;;9.84;95.54;101458.78;5054105;28;20447;-49
2024/02/03 07:57:41;;;;;;;0.30;0.20;;;;;;;9.83;95.67;101457.00;5054278;28;20940;-49
2024/02/03 08:00:08;;;;;;;0.30;0.20;;;;;;;9.92;95.76;101457.84;5054242;28;20863;-49
2024/02/03 08:02:34;;;;;;;0.30;0.20;;;;;;;9.98;94.77;101457.78;5053957;28;20845;-48
2024/02/03 08:05:01;;;;;;;0.30;0.20;;;;;;;9.99;94.59;101456.88;5054151;28;20952;-49
2024/02/03 08:07:27;;;;;;;0.30;0.20;;;;;;;9.92;94.92;101457.84;5054069;28;20855;-49
2024/02/03 08:09:53;;;;;;;0.30;0.20;;;;;;;9.97;95.05;101458.69;5054198;28;20491;-48
2024/02/03 08:12:20;;;;;;;0.30;0.20;;;;;;;9.95;94.88;101456.94;5054160;28;20466;-48
2024/02/03 08:14:47;;;;;;;0.30;0.20;;;;;;;10.06;94.36;101452.44;5054068;28;20451;-49
2024/02/03 08:17:13;;;;;;;0.30;0.20;;;;;;;10.01;94.85;101451.59;5053953;28;20482;-49
2024/02/03 08:19:39;;;;;;;0.30;0.20;;;;;;;9.96;95.23;101451.59;5053728;28;20457;-49
2024/02/03 08:22:06;;;;;;;0.30;0.20;;;;;;;10.15;95.18;101444.41;5053881;28;20497;-48
2024/02/03 08:24:32;;;;;;;0.30;0.20;;;;;;;10.19;94.95;101450.56;5053638;28;20490;-49
2024/02/03 08:26:59;;;;;;;0.30;0.20;;;;;;;10.14;94.73;101450.56;5059634;28;20457;-49
2024/02/03 08:29:25;;;;;;;0.30;0.20;;;;;;;10.05;95.13;101451.53;5048200;28;20460;-48
2024/02/03 08:31:52;;;;;;;0.30;0.20;;;;;;;10.21;94.79;101455.00;5053877;28;20549;-48
2024/02/03 08:34:18;;;;;;;0.30;0.20;;;;;;;10.17;95.21;101457.66;5035605;28;20522;-49
2024/02/03 08:36:45;;;;;;;0.30;0.20;;;;;;;10.36;94.80;101453.97;5053706;28;20455;-48
2024/02/03 08:39:11;;;;;;;0.30;0.20;;;;;;;10.21;95.00;101452.34;5053408;28;20930;-48
2024/02/03 08:41:58;;;;;;;0.30;0.20;;;;;;;10.21;94.85;101447.03;5053808;28;20462;-48
2024/02/03 08:44:24;;;;;;;0.30;0.20;;;;;;;10.25;95.29;101453.19;5053320;28;20486;-48
2024/02/03 08:46:51;;;;;;;0.30;0.20;;;;;;;10.27;95.10;101448.72;5053498;28;20442;-50
2024/02/03 08:49:17;;;;;;;0.30;0.20;;;;;;;10.57;93.91;101432.53;5052371;28;20443;-48
2024/02/03 08:51:44;;;;;;;0.30;0.20;;;;;;;10.45;94.43;101440.59;5053468;28;20482;-49
2024/02/03 08:54:10;;;;;;;0.30;0.20;;;;;;;10.37;94.14;101440.66;5054493;28;20447;-50
2024/02/03 08:56:37;;;;;;;0.30;0.20;;;;;;;10.27;94.32;101441.63;5053210;28;20534;-49
2024/02/03 08:59:03;;;;;;;0.30;0.20;;;;;;;10.32;94.21;101441.63;5053366;28;20475;-50
2024/02/03 09:01:30;;;;;;;0.30;0.20;;;;;;;10.43;94.01;101438.88;5052968;28;20486;-50
2024/02/03 09:03:56;;;;;;;0.30;0.20;;;;;;;10.34;94.06;101432.72;5053004;28;20490;-49
2024/02/03 09:06:23;;;;;;;0.30;0.20;;;;;;;10.56;93.72;101435.19;5053114;28;20425;-49
2024/02/03 09:08:51;;;;;;;0.30;0.20;;;;;;;10.54;93.38;101427.22;5052984;28;20505;-50
2024/02/03 09:11:18;;;;;;;0.30;0.20;;;;;;;10.47;93.47;101429.97;5053288;28;20474;-49
2024/02/03 09:13:44;;;;;;;0.30;0.20;;;;;;;10.31;94.66;101431.88;5053065;28;20522;-49
2024/02/03 09:16:11;;;;;;;0.30;0.20;;;;;;;10.37;93.91;101438.00;5052809;28;20478;-50
2024/02/03 09:18:37;;;;;;;0.30;0.20;;;;;;;10.43;94.46;101428.25;5053004;28;20537;-50
2024/02/03 09:21:08;;;;;;;0.30;0.20;;;;;;;10.41;94.61;101428.22;5052601;28;20453;-50
2024/02/03 09:23:37;;;;;;;0.30;0.20;;;;;;;10.28;95.04;101435.47;5060173;28;20483;-50
2024/02/03 09:26:04;;;;;;;0.30;0.20;;;;;;;10.33;94.95;101436.28;5052320;28;20457;-49
2024/02/03 09:28:30;;;;;;;0.30;0.20;;;;;;;10.40;94.49;101445.06;5052463;28;21015;-49
2024/02/03 09:30:57;;;;;;;0.30;0.20;;;;;;;10.50;94.51;101438.78;5052521;28;20538;-50
2024/02/03 09:33:23;;;;;;;0.30;0.20;;;;;;;10.58;94.12;101430.75;5052539;28;20471;-50
2024/02/03 09:35:50;;;;;;;0.30;0.20;;;;;;;10.38;94.88;101434.44;5052467;28;20441;-50
2024/02/03 09:38:16;;;;;;;0.30;0.20;;;;;;;10.33;95.05;101432.75;5035725;28;20904;-49
2024/02/03 09:40:43;;;;;;;0.30;0.20;;;;;;;10.42;95.77;101431.78;5058195;28;20519;-50
2024/02/03 09:43:10;;;;;;;0.30;0.20;;;;;;;10.49;95.03;101437.03;5055468;28;20481;-50
2024/02/03 09:45:37;;;;;;;0.30;0.20;;;;;;;10.34;94.86;101442.47;5052445;28;20458;-51
2024/02/03 09:48:04;;;;;;;0.30;0.20;;;;;;;10.45;95.35;101447.72;5052279;28;20443;-49
2024/02/03 09:50:31;;;;;;;0.30;0.20;;;;;;;10.63;94.60;101434.22;5052317;28;20461;-49
2024/02/03 09:53:00;;;;;;;0.30;0.20;;;;;;;10.57;94.54;101429.84;5034394;28;20478;-49
2024/02/03 09:55:27;;;;;;;0.30;0.20;;;;;;;10.72;93.59;101439.44;5052233;28;20454;-49
2024/02/03 09:57:54;;;;;;;0.30;0.20;;;;;;;10.68;93.60;101437.69;5051895;28;20475;-49
2024/02/03 10:00:21;;;;;;;0.30;0.20;;;;;;;10.77;94.13;101439.41;5054942;28;20573;-49
2024/02/03 10:02:48;;;;;;;0.30;0.20;;;;;;;10.74;93.58;101450.94;5051910;28;20467;-50
2024/02/03 10:05:24;;;;;;;0.30;0.20;;;;;;;10.50;94.26;101449.41;5051886;28;20487;-50
2024/02/03 10:08:01;;;;;;;0.30;0.20;;;;;;;10.73;93.69;101449.19;5051962;28;20453;-49
2024/02/03 10:10:27;;;;;;;0.30;0.20;;;;;;;10.89;93.41;101453.44;5051742;28;20485;-50
2024/02/03 10:13:26;;;;;;;0.30;0.20;;;;;;;10.71;93.92;101447.44;5051890;28;20477;-49
2024/02/03 10:16:00;;;;;;;0.30;0.20;;;;;;;10.89;93.97;101455.22;5050446;28;20461;-49
2024/02/03 10:18:28;;;;;;;0.30;0.20;;;;;;;10.87;93.38;101455.25;5051628;28;20461;-49
2024/02/03 10:20:55;;;;;;;0.30;0.20;;;;;;;10.92;93.69;101441.88;5051802;28;20462;-50
2024/02/03 10:23:22;;;;;;;0.30;0.20;;;;;;;10.94;93.11;101450.72;5051501;28;20991;-50
2024/02/03 10:25:58;;;;;;;0.30;0.20;;;;;;;10.89;93.65;101442.81;5051911;28;20533;-50
2024/02/03 10:28:25;;;;;;;0.30;0.20;;;;;;;10.98;93.39;101457.78;5052174;28;20473;-50
2024/02/03 10:30:55;;;;;;;0.30;0.20;;;;;;;11.08;92.73;101450.56;5050941;28;20541;-50
2024/02/03 10:33:26;;;;;;;0.30;0.20;;;;;;;11.24;92.51;101452.16;5053994;28;20540;-50
2024/02/03 10:35:52;;;;;;;0.30;0.20;;;;;;;11.27;92.65;101452.13;5051274;28;20451;-50
2024/02/03 10:38:19;;;;;;;0.30;0.20;;;;;;;11.12;93.06;101454.97;5051429;28;20475;-50
2024/02/03 10:40:46;;;;;;;0.30;0.20;;;;;;;11.38;92.63;101449.31;5051382;28;20827;-50
2024/02/03 10:43:24;;;;;;;0.30;0.20;;;;;;;11.41;91.46;101450.16;5051517;28;20525;-50
2024/02/03 10:45:53;;;;;;;0.30;0.20;;;;;;;11.35;91.45;101452.00;5051367;28;20994;-50
2024/02/03 10:48:25;;;;;;;0.30;0.20;;;;;;;11.41;91.42;101438.63;5051465;28;20546;-50
2024/02/03 10:50:57;;;;;;;0.30;0.20;;;;;;;11.30;91.63;101441.41;5051663;28;20853;-53
2024/02/03 10:53:32;;;;;;;0.30;0.20;;;;;;;11.45;91.64;101438.53;5051298;28;21009;-51
2024/02/03 10:56:03;;;;;;;0.30;0.20;;;;;;;11.43;90.70;101437.69;5051494;28;20508;-51
2024/02/03 10:58:31;;;;;;;0.30;0.20;;;;;;;11.70;90.74;101435.53;5051153;28;20449;-51
2024/02/03 11:00:59;;;;;;;0.30;0.20;;;;;;;11.61;90.36;101433.88;5051539;28;20450;-51
2024/02/03 11:03:37;;;;;;;0.30;0.20;;;;;;;11.54;90.77;101430.44;5051196;28;20450;-50
2024/02/03 11:06:08;;;;;;;0.30;0.20;;;;;;;11.53;90.22;101425.13;5051423;28;20442;-50
2024/02/03 11:08:35;;;;;;;0.30;0.20;;;;;;;11.70;89.94;101430.22;5051398;28;20512;-51
2024/02/03 11:11:02;;;;;;;0.30;0.20;;;;;;;11.79;89.41;101432.78;5051171;28;20573;-50
2024/02/03 11:13:30;;;;;;;0.30;0.20;;;;;;;11.84;89.75;101428.25;5052971;28;20454;-51
2024/02/03 11:15:57;;;;;;;0.30;0.20;;;;;;;12.02;89.49;101419.97;5055323;28;20439;-51
2024/02/03 11:18:25;;;;;;;0.30;0.20;;;;;;;11.95;89.33;101410.31;5055055;28;20456;-51
2024/02/03 11:21:08;;;;;;;0.30;0.20;;;;;;;11.97;88.93;101410.28;5055149;28;20502;-51
2024/02/03 11:23:35;;;;;;;0.30;0.20;;;;;;;12.20;88.35;101412.56;5055194;28;20485;-51
2024/02/03 11:26:02;;;;;;;0.30;0.20;;;;;;;12.04;88.19;101407.47;5055228;28;20457;-51
2024/02/03 11:28:35;;;;;;;0.30;0.20;;;;;;;12.04;88.39;101401.28;5055020;28;20534;-51
2024/02/03 11:31:04;;;;;;;0.30;0.20;;;;;;;12.40;87.74;101391.78;5054799;28;20537;-51